Latest Coastal Weather Observations for Larapuna (Eddystone Point)

IDT60701

Issued at 6:15 am EST Wednesday 24 September 2014 (issued every 10 minutes, with the page automatically refreshed every 10 minutes)

About coastal observations | Map of coastal stations | Coastal observations for TAS | Marine services | Other Formats
Station Details ID: 092045 Name: LARAPUNA (EDDYSTONE POINT) Lat: -40.99 Lon: 148.35 Height: 19.7 m
Data from the previous 72 hours. | See also: Recent months at Larapuna (Eddystone Point)
Date/Time
EST
Temp

°C
Wind Pressure Rain
since 9am
mm
Weather Cloud Vis
km
Sea
Height
m
Swell
Dir
 
Speed
knots
Gust
knots
hPa Trend Height
m
Period
s
Dir
24/06:00am 11.3 WNW 8 10 1018.2 - 0.0 - - - - - - -
24/05:30am 11.5 NW 7 8 1018.3 - 0.0 - - - - - - -
24/05:00am 11.6 W 11 12 1018.4 - 0.0 - - - - - - -
24/04:30am 11.2 WNW 8 11 1018.6 - 0.0 - - - - - - -
24/04:00am 11.8 W 11 13 1018.9 - 0.0 - - - - - - -
24/03:30am 11.4 W 11 14 1019.0 - 0.0 - - - - - - -
24/03:00am 11.1 W 10 13 1019.3 - 0.0 - - - - - - -
24/02:30am 10.3 WNW 10 12 1019.5 - 0.0 - - - - - - -
24/02:00am 10.0 WNW 7 9 1019.9 - 0.0 - - - - - - -
24/01:30am 9.6 NW 7 9 1020.3 - 0.0 - - - - - - -
24/01:00am 9.9 NW 7 9 1020.8 - 0.0 - - - - - - -
24/12:30am 10.5 NNW 7 8 1021.0 - 0.0 - - - - - - -
24/12:00am 11.0 NNW 6 8 1021.2 - 0.0 - - - - - - -
 
Date/Time
EST
Temp

°C
Wind Pressure Rain
since 9am
mm
Weather Cloud Vis
km
Sea
Height
m
Swell
Dir
 
Speed
knots
Gust
knots
hPa Trend Height
m
Period
s
Dir
23/11:30pm 10.8 WNW 9 11 1021.3 - 0.0 - - - - - - -
23/11:00pm 10.5 WNW 9 11 1021.4 - 0.0 - - - - - - -
23/10:30pm 10.9 NW 10 13 1021.6 - 0.0 - - - - - - -
23/10:00pm 11.2 NNW 9 11 1021.9 - 0.0 - - - - - - -
23/09:30pm 11.6 NW 10 13 1022.2 - 0.0 - - - - - - -
23/09:00pm 12.1 NW 11 14 1022.3 - 0.0 - - - - - - -
23/08:30pm 12.3 NW 10 13 1022.3 - 0.0 - - - - - - -
23/08:00pm 12.5 NW 12 15 1022.1 - 0.0 - - - - - - -
23/07:30pm 13.0 NW 8 10 1022.2 - 0.0 - - - - - - -
23/07:00pm 13.5 NNW 10 11 1022.2 - 0.0 - - - - - - -
23/06:30pm 14.3 NW 11 14 1022.1 - 0.0 - - - - - - -
23/06:00pm 15.1 NW 12 16 1022.1 - 0.0 - - - - - - -
23/05:30pm 16.4 NW 10 14 1022.1 - 0.0 - - - - - - -
23/05:00pm 17.9 NW 10 14 1022.2 - 0.0 - - - - - - -
23/04:30pm 18.8 NW 13 17 1022.2 - 0.0 - - - - - - -
23/04:00pm 19.4 NW 16 22 1022.3 - 0.0 - - - - - - -
23/03:30pm 20.0 NW 20 25 1022.1 - 0.0 - - - - - - -
23/03:00pm 20.0 NW 19 23 1022.5 - 0.0 - - - - - - -
23/02:30pm 20.2 NW 18 23 1023.1 - 0.0 - - - - - - -
23/12:30pm 20.0 NW 16 23 1024.3 - 0.0 - - - - - - -
23/12:00pm 19.7 WNW 16 21 1024.6 - 0.0 - - - - - - -
23/11:30am 19.7 NW 13 18 1024.9 - 0.0 - - - - - - -
23/11:00am 18.6 NW 16 20 1025.3 - 0.0 - - - - - - -
23/10:30am 18.1 NW 12 18 1025.5 - 0.0 - - - - - - -
23/10:00am 17.0 NW 13 17 1025.8 - 0.0 - - - - - - -
23/09:30am 15.1 NW 11 14 1026.0 - 0.0 - - - - - - -
23/09:00am 14.2 NNW 11 14 1026.1 - 0.0 - - - - - - -
23/08:30am 13.2 NNW 10 13 1026.2 - 0.0 - - - - - - -
23/08:00am 11.6 NW 12 14 1026.3 - 0.0 - - - - - - -
23/07:30am 10.4 NW 15 18 1026.2 - 0.0 - - - - - - -
23/07:00am 9.4 NW 15 18 1026.0 - 0.0 - - - - - - -
23/06:30am 8.5 NW 15 17 1025.9 - 0.0 - - - - - - -
23/06:00am 7.9 NW 15 18 1026.0 - 0.0 - - - - - - -
23/05:30am 8.2 NW 16 18 1025.9 - 0.0 - - - - - - -
23/05:00am 8.0 NW 13 15 1025.9 - 0.0 - - - - - - -
23/04:30am 7.8 NW 12 14 1025.9 - 0.0 - - - - - - -
23/04:00am 8.2 NW 11 14 1025.9 - 0.0 - - - - - - -
23/03:30am 8.4 NW 12 14 1025.8 - 0.0 - - - - - - -
23/03:00am 8.4 NW 11 13 1025.9 - 0.0 - - - - - - -
23/02:30am 8.6 NW 12 15 1025.9 - 0.0 - - - - - - -
23/02:00am 8.7 NNW 10 13 1026.0 - 0.0 - - - - - - -
23/01:30am 9.0 NNW 10 13 1026.4 - 0.0 - - - - - - -
23/01:00am 9.1 NNW 10 12 1026.6 - 0.0 - - - - - - -
23/12:30am 9.4 NNW 10 14 1026.6 - 0.0 - - - - - - -
23/12:00am 9.4 NNW 11 14 1026.6 - 0.0 - - - - - - -
 
Date/Time
EST
Temp

°C
Wind Pressure Rain
since 9am
mm
Weather Cloud Vis
km
Sea
Height
m
Swell
Dir
 
Speed
knots
Gust
knots
hPa Trend Height
m
Period
s
Dir
22/11:30pm 9.7 NNW 11 15 1026.5 - 0.0 - - - - - - -
22/11:00pm 9.9 NNW 10 13 1026.7 - 0.0 - - - - - - -
22/10:30pm 10.0 NNW 10 14 1026.8 - 0.0 - - - - - - -
22/10:00pm 10.3 NW 10 13 1027.0 - 0.0 - - - - - - -
22/09:30pm 10.4 NW 10 16 1026.9 - 0.0 - - - - - - -
22/09:00pm 10.6 NW 15 21 1026.8 - 0.0 - - - - - - -
22/08:30pm 10.5 NW 16 22 1026.6 - 0.0 - - - - - - -
22/08:00pm 10.6 NW 17 23 1026.6 - 0.0 - - - - - - -
22/07:30pm 10.8 NW 19 23 1026.2 - 0.0 - - - - - - -
22/07:00pm 11.2 NW 18 23 1025.8 - 0.0 - - - - - - -
22/06:30pm 11.6 NW 18 24 1025.6 - 0.0 - - - - - - -
22/06:00pm 12.0 NW 19 25 1025.6 - 0.0 - - - - - - -
22/05:30pm 12.8 NW 23 29 1025.3 - 0.0 - - - - - - -
22/05:00pm 13.6 NW 22 28 1025.3 - 0.0 - - - - - - -
22/04:30pm 14.0 NW 21 26 1025.1 - 0.0 - - - - - - -
22/04:00pm 14.7 NW 20 26 1025.2 - 0.0 - - - - - - -
22/03:30pm 15.0 NW 22 28 1025.6 - 0.0 - - - - - - -
22/03:20pm 15.3 NW 20 30 1025.7 - 0.0 - - - - - - -
22/03:00pm 15.7 NW 21 28 1025.7 - 0.0 - - - - - - -
22/02:30pm 16.3 NW 19 26 1025.9 - 0.0 - - - - - - -
22/02:00pm 17.0 NW 17 25 1026.1 - 0.0 - - - - - - -
22/01:30pm 16.9 NW 18 24 1026.4 - 0.0 - - - - - - -
22/01:00pm 17.1 NW 20 27 1026.6 - 0.0 - - - - - - -
22/12:30pm 17.4 NW 17 23 1026.8 - 0.0 - - - - - - -
22/12:00pm 17.3 NW 16 23 1027.1 - 0.0 - - - - - - -
22/11:30am 16.8 NW 16 22 1027.4 - 0.0 - - - - - - -
22/11:00am 16.2 NW 16 22 1027.7 - 0.0 - - - - - - -
22/10:30am 15.5 NW 16 21 1028.0 - 0.0 - - - - - - -
22/10:00am 15.3 NW 15 21 1028.2 - 0.0 - - - - - - -
22/09:30am 14.0 NW 17 22 1028.6 - 0.0 - - - - - - -
22/09:00am 13.1 WNW 15 21 1028.8 - 0.0 - - - - - - -
22/08:30am 11.7 NW 14 20 1029.1 - 0.0 - - - - - - -
22/08:00am 10.5 NW 13 18 1028.8 - 0.0 - - - - - - -
22/07:30am 10.0 NW 11 16 1028.7 - 0.0 - - - - - - -
22/07:00am 9.5 NW 12 15 1028.7 - 0.0 - - - - - - -
22/06:30am 8.6 WNW 11 14 1028.5 - 0.0 - - - - - - -
22/06:00am 8.0 WNW 11 13 1028.2 - 0.0 - - - - - - -
22/05:30am 7.8 WNW 11 13 1028.0 - 0.0 - - - - - - -
22/05:00am 7.9 WNW 11 13 1027.8 - 0.0 - - - - - - -
22/04:30am 8.0 WNW 12 13 1027.6 - 0.0 - - - - - - -
22/04:00am 8.2 WNW 12 13 1027.2 - 0.0 - - - - - - -
22/03:30am 9.0 NW 11 12 1027.1 - 0.0 - - - - - - -
22/03:00am 8.5 NW 9 10 1027.2 - 0.0 - - - - - - -
22/02:30am 9.1 NW 5 6 1027.4 - 0.0 - - - - - - -
22/02:00am 9.6 NW 5 8 1027.4 - 0.0 - - - - - - -
22/01:30am 9.8 WNW 9 10 1027.5 - 0.0 - - - - - - -
22/01:00am 9.7 NW 10 13 1027.8 - 0.0 - - - - - - -
22/12:30am 9.4 NW 9 10 1027.8 - 0.0 - - - - - - -
22/12:00am 9.5 NW 9 11 1027.8 - 0.0 - - - - - - -
 
Date/Time
EST
Temp

°C
Wind Pressure Rain
since 9am
mm
Weather Cloud Vis
km
Sea
Height
m
Swell
Dir
 
Speed
knots
Gust
knots
hPa Trend Height
m
Period
s
Dir
21/11:30pm 10.2 NNW 9 10 1027.9 - 0.0 - - - - - - -
21/11:00pm 10.4 NW 10 11 1027.9 - 0.0 - - - - - - -
21/10:30pm 10.4 NW 8 10 1027.9 - 0.0 - - - - - - -
21/10:00pm 10.8 NW 10 12 1028.0 - 0.0 - - - - - - -
21/09:30pm 10.8 NW 9 11 1028.1 - 0.0 - - - - - - -
21/09:00pm 11.1 NW 10 13 1028.0 - 0.0 - - - - - - -
21/08:30pm 11.4 NW 10 12 1027.9 - 0.0 - - - - - - -
21/08:00pm 11.4 WNW 10 13 1027.8 - 0.0 - - - - - - -
21/07:30pm 11.7 NW 10 14 1027.7 - 0.0 - - - - - - -
21/07:00pm 12.0 NW 11 13 1027.5 - 0.0 - - - - - - -
21/06:30pm 12.5 NW 11 14 1027.3 - 0.0 - - - - - - -
21/06:00pm 13.4 NW 11 15 1026.9 - 0.0 - - - - - - -
21/05:30pm 14.7 NW 11 15 1026.9 - 0.0 - - - - - - -
21/05:00pm 15.9 WNW 10 13 1026.7 - 0.0 - - - - - - -
21/04:30pm 16.5 NW 10 13 1026.7 - 0.0 - - - - - - -
21/04:00pm 16.7 NNW 9 13 1026.6 - 0.0 - - - - - - -
21/03:30pm 16.6 NNW 9 12 1026.4 - 0.0 - - - - - - -
21/03:00pm 16.0 N 13 17 1026.3 - 0.0 - - - - - - -
21/02:30pm 15.9 N 13 17 1026.3 - 0.0 - - - - - - -
21/02:00pm 16.3 N 13 16 1026.3 - 0.0 - - - - - - -
21/01:30pm 16.2 N 12 15 1026.5 - 0.0 - - - - - - -
21/01:00pm 14.6 N 13 17 1026.5 - 0.0 - - - - - - -
21/12:30pm 14.2 N 12 16 1026.7 - 0.0 - - - - - - -
21/12:00pm 14.7 N 13 16 1027.0 - 0.0 - - - - - - -
21/11:30am 14.1 N 13 16 1027.3 - 0.0 - - - - - - -
21/11:00am 14.2 N 11 14 1027.5 - 0.0 - - - - - - -
21/10:30am 14.3 N 9 11 1027.7 - 0.0 - - - - - - -
21/10:00am 12.6 NNW 11 13 1027.6 - 0.0 - - - - - - -
21/09:30am 12.9 NNW 10 13 1027.7 - 0.0 - - - - - - -
21/09:00am 12.4 NNW 7 9 1027.7 - 0.0 - - - - - - -
21/08:30am 12.1 NNW 6 8 1027.5 - 0.0 - - - - - - -
21/08:00am 11.4 WNW 4 5 1027.8 - 0.0 - - - - - - -
21/07:30am 10.5 SSW 5 6 1027.7 - 0.0 - - - - - - -
21/07:00am 9.5 SW 4 5 1027.4 - 0.0 - - - - - - -
21/06:30am 8.0 W 9 11 1026.7 - 0.0 - - - - - - -

Other Formats:

Comma delimited format used in spreadsheet applications
http://www.bom.gov.au/fwo/IDT60701/IDT60701.94983.axf

JavaScript Object Notation format (JSON) in row-major order
http://www.bom.gov.au/fwo/IDT60701/IDT60701.94983.json